createdAt,value
2022-07-30T00:00:30.330Z,22.40
2022-07-30T00:01:35.967Z,22.40
2022-07-30T00:02:39.278Z,22.40
2022-07-30T00:03:41.423Z,22.40
2022-07-30T00:04:45.758Z,22.40
2022-07-30T00:05:47.655Z,22.40
2022-07-30T00:06:49.533Z,22.30
2022-07-30T00:07:51.259Z,22.30
2022-07-30T00:08:53.178Z,22.30
2022-07-30T00:09:54.939Z,22.30
2022-07-30T00:10:56.945Z,22.20
2022-07-30T00:11:58.885Z,22.20
2022-07-30T00:13:03.676Z,22.20
2022-07-30T00:14:05.644Z,22.20
2022-07-30T00:15:08.030Z,22.20
2022-07-30T00:16:11.914Z,22.20
2022-07-30T00:17:14.180Z,22.20
2022-07-30T00:18:16.959Z,22.20
2022-07-30T00:19:18.899Z,22.10
2022-07-30T00:20:21.811Z,22.10
2022-07-30T00:21:35.817Z,22.10
2022-07-30T00:22:38.331Z,22.10
2022-07-30T00:23:40.257Z,22.10
2022-07-30T00:24:55.226Z,22.10
2022-07-30T00:25:57.118Z,22.00
2022-07-30T00:26:59.220Z,22.00
2022-07-30T00:28:01.122Z,22.00
2022-07-30T00:29:03.813Z,22.00
2022-07-30T00:30:06.810Z,21.90
2022-07-30T00:31:09.462Z,21.80
2022-07-30T00:32:11.395Z,21.80
2022-07-30T00:33:13.420Z,21.80
2022-07-30T00:34:15.179Z,21.80
2022-07-30T00:35:17.314Z,21.70
2022-07-30T00:36:20.019Z,21.70
2022-07-30T00:37:22.109Z,21.70
2022-07-30T00:38:23.832Z,21.70
2022-07-30T00:39:25.927Z,21.70
2022-07-30T00:40:28.952Z,21.70
2022-07-30T00:41:31.198Z,21.80
2022-07-30T00:42:45.517Z,21.80
2022-07-30T00:43:47.554Z,21.80
2022-07-30T00:44:49.478Z,21.90
2022-07-30T00:45:51.360Z,21.90
2022-07-30T00:46:53.865Z,21.90
2022-07-30T00:47:55.753Z,21.90
2022-07-30T00:48:57.872Z,21.90
2022-07-30T00:49:59.754Z,21.90
2022-07-30T00:51:01.437Z,21.90
2022-07-30T00:52:03.472Z,22.00
2022-07-30T00:53:06.178Z,22.00
2022-07-30T00:54:08.131Z,22.00
2022-07-30T00:55:12.442Z,22.00
2022-07-30T00:56:14.482Z,22.00
2022-07-30T00:57:16.880Z,22.00
2022-07-30T00:58:18.617Z,22.00
2022-07-30T00:59:20.377Z,22.00
2022-07-30T01:00:22.226Z,22.00
2022-07-30T01:01:23.959Z,22.00
2022-07-30T01:02:26.006Z,22.20
2022-07-30T01:03:27.879Z,22.00
2022-07-30T01:04:31.094Z,22.00
2022-07-30T01:05:33.292Z,22.10
2022-07-30T01:06:35.262Z,22.10
2022-07-30T01:07:37.485Z,22.10
2022-07-30T01:08:39.368Z,22.20
2022-07-30T01:09:41.510Z,22.20
2022-07-30T01:10:49.953Z,22.20
2022-07-30T01:11:51.773Z,22.20
2022-07-30T01:12:54.691Z,22.30
2022-07-30T01:13:56.817Z,22.30
2022-07-30T01:15:01.494Z,22.40
2022-07-30T01:16:04.902Z,22.30
2022-07-30T01:17:06.962Z,22.30
2022-07-30T01:18:11.931Z,22.30
2022-07-30T01:19:46.842Z,22.30
2022-07-30T01:21:12.133Z,22.50
2022-07-30T01:22:30.454Z,22.30
2022-07-30T01:23:38.908Z,22.30
2022-07-30T01:24:57.508Z,22.30
2022-07-30T01:26:07.413Z,22.20
2022-07-30T01:27:11.290Z,22.30
2022-07-30T01:28:18.602Z,22.20
2022-07-30T01:29:21.367Z,22.20
2022-07-30T01:30:27.187Z,22.20
2022-07-30T01:31:29.908Z,22.30
2022-07-30T01:32:34.484Z,22.30
2022-07-30T01:33:42.289Z,22.30
2022-07-30T01:34:45.737Z,22.40
2022-07-30T01:35:50.362Z,22.30
2022-07-30T01:36:52.994Z,22.30
2022-07-30T01:37:56.882Z,22.40
2022-07-30T01:39:00.228Z,22.40
2022-07-30T01:40:20.996Z,22.40
2022-07-30T01:41:24.309Z,22.50
2022-07-30T01:42:29.010Z,22.40
2022-07-30T01:43:32.576Z,22.40
2022-07-30T01:44:36.137Z,22.40
2022-07-30T01:45:42.136Z,22.50
2022-07-30T01:46:48.164Z,22.40
2022-07-30T01:47:52.378Z,22.40
2022-07-30T01:48:56.384Z,22.40
2022-07-30T01:50:00.372Z,22.40
2022-07-30T01:51:06.016Z,22.40
2022-07-30T01:52:11.268Z,22.40
2022-07-30T01:53:19.366Z,22.40
2022-07-30T01:54:24.237Z,22.40
2022-07-30T01:55:31.071Z,22.40
2022-07-30T01:56:35.088Z,22.40
2022-07-30T01:57:39.317Z,22.40
2022-07-30T01:58:43.290Z,22.30
2022-07-30T01:59:50.467Z,22.30
2022-07-30T02:00:55.439Z,22.30
2022-07-30T02:01:58.459Z,22.30
2022-07-30T02:03:00.700Z,22.30
2022-07-30T02:04:03.527Z,22.30
2022-07-30T02:05:06.568Z,22.30
2022-07-30T02:06:20.505Z,22.30
2022-07-30T02:07:32.963Z,22.20
2022-07-30T02:08:52.213Z,22.30
2022-07-30T02:10:27.122Z,22.30
2022-07-30T02:11:47.545Z,22.20
2022-07-30T02:12:55.387Z,22.20
2022-07-30T02:13:58.004Z,22.20
2022-07-30T02:15:00.532Z,22.20
2022-07-30T02:16:09.554Z,22.20
2022-07-30T02:17:19.548Z,22.20
2022-07-30T02:18:40.956Z,22.20
2022-07-30T02:19:45.219Z,22.20
2022-07-30T02:20:56.303Z,22.10
2022-07-30T02:22:03.660Z,22.30
2022-07-30T02:23:12.939Z,22.10
2022-07-30T02:24:19.802Z,22.10
2022-07-30T02:25:23.436Z,22.10
2022-07-30T02:26:27.718Z,22.10
2022-07-30T02:27:33.950Z,22.10
2022-07-30T02:28:39.534Z,22.10
2022-07-30T02:29:44.624Z,22.10
2022-07-30T02:30:53.627Z,22.10
2022-07-30T02:31:58.261Z,22.10
2022-07-30T02:33:04.999Z,22.10
2022-07-30T02:34:08.321Z,22.10
2022-07-30T02:35:17.301Z,22.10
2022-07-30T02:36:20.124Z,22.10
2022-07-30T02:37:43.014Z,22.10
2022-07-30T02:38:47.279Z,22.00
2022-07-30T02:39:52.406Z,22.00
2022-07-30T02:41:00.236Z,22.00
2022-07-30T02:57:55.563Z,21.70
2022-07-30T02:58:58.814Z,21.60
2022-07-30T03:00:01.369Z,21.70
2022-07-30T03:01:04.599Z,21.60
2022-07-30T03:02:08.208Z,21.60
2022-07-30T03:03:12.436Z,21.60
2022-07-30T03:04:15.980Z,21.60
2022-07-30T03:05:18.661Z,21.60
2022-07-30T03:06:21.135Z,21.60
2022-07-30T03:07:24.218Z,21.60
2022-07-30T03:08:27.582Z,21.70
2022-07-30T03:09:50.999Z,21.60
2022-07-30T03:10:55.338Z,21.60
2022-07-30T03:11:57.944Z,21.80
2022-07-30T03:13:01.135Z,21.60
2022-07-30T03:14:03.667Z,21.60
2022-07-30T03:15:07.447Z,21.60
2022-07-30T03:16:10.791Z,21.60
2022-07-30T03:17:15.833Z,21.70
2022-07-30T03:18:19.983Z,21.70
2022-07-30T03:19:27.111Z,21.70
2022-07-30T03:20:32.612Z,21.70
2022-07-30T03:21:37.555Z,21.70
2022-07-30T03:22:44.212Z,21.70
2022-07-30T03:23:47.815Z,21.70
2022-07-30T03:24:50.514Z,21.60
2022-07-30T03:25:56.681Z,21.60
2022-07-30T03:27:01.015Z,21.70
2022-07-30T03:28:06.922Z,21.60
2022-07-30T03:29:10.495Z,21.60
2022-07-30T03:30:13.247Z,21.60
2022-07-30T03:31:16.179Z,21.60
2022-07-30T03:32:18.881Z,21.60
2022-07-30T03:33:38.240Z,21.60
2022-07-30T03:34:42.550Z,21.60
2022-07-30T03:35:47.192Z,21.60
2022-07-30T03:36:50.097Z,21.60
2022-07-30T03:37:52.389Z,21.60
2022-07-30T03:38:54.446Z,21.60
2022-07-30T03:39:58.096Z,21.70
2022-07-30T03:41:02.218Z,21.60
2022-07-30T03:42:08.133Z,21.60
2022-07-30T03:43:18.525Z,21.60
2022-07-30T03:44:34.436Z,21.60
2022-07-30T03:45:37.874Z,21.60
2022-07-30T03:46:41.423Z,21.70
2022-07-30T03:47:44.438Z,21.60
2022-07-30T03:48:47.418Z,21.60
2022-07-30T03:49:49.241Z,21.60
2022-07-30T03:50:51.717Z,21.60
2022-07-30T03:51:54.026Z,21.60
2022-07-30T03:52:57.546Z,21.60
2022-07-30T03:53:59.602Z,21.60
2022-07-30T03:55:03.121Z,21.60
2022-07-30T03:56:05.053Z,21.60
2022-07-30T03:57:07.444Z,21.60
2022-07-30T03:58:10.236Z,21.60
2022-07-30T03:59:15.427Z,21.60
2022-07-30T04:00:17.227Z,21.70
2022-07-30T04:01:19.233Z,21.70
2022-07-30T04:02:21.041Z,21.70
2022-07-30T04:03:27.634Z,21.70
2022-07-30T04:04:30.273Z,21.70
2022-07-30T04:05:41.353Z,21.70
2022-07-30T04:06:43.561Z,21.70
2022-07-30T04:07:47.688Z,21.70
2022-07-30T04:08:49.501Z,21.70
2022-07-30T04:09:51.179Z,21.70
2022-07-30T04:10:52.919Z,21.60
2022-07-30T04:11:54.595Z,21.70
2022-07-30T04:12:56.617Z,21.60
2022-07-30T04:13:58.325Z,21.60
2022-07-30T04:15:00.106Z,21.60
2022-07-30T04:16:41.096Z,21.60
2022-07-30T04:17:35.165Z,21.60
2022-07-30T04:18:40.624Z,21.60
2022-07-30T04:19:49.554Z,21.60
2022-07-30T04:20:53.690Z,21.50
2022-07-30T04:21:57.570Z,21.50
2022-07-30T04:22:59.826Z,21.50
2022-07-30T04:24:04.499Z,21.50
2022-07-30T04:25:09.387Z,21.50
2022-07-30T04:26:11.743Z,21.50
2022-07-30T04:27:14.380Z,21.50
2022-07-30T04:28:16.555Z,21.50
2022-07-30T04:29:24.160Z,21.50
2022-07-30T04:30:27.464Z,21.50
2022-07-30T04:31:29.873Z,21.50
2022-07-30T04:32:32.498Z,21.50
2022-07-30T04:33:34.283Z,21.40
2022-07-30T04:34:36.320Z,21.40
2022-07-30T04:35:50.685Z,21.40
2022-07-30T04:36:54.063Z,21.40
2022-07-30T04:37:55.751Z,21.40
2022-07-30T04:38:58.121Z,21.40
2022-07-30T04:40:00.439Z,21.40
2022-07-30T04:41:02.516Z,21.40
2022-07-30T04:42:04.446Z,21.40
2022-07-30T04:43:06.421Z,21.40
2022-07-30T04:44:08.133Z,21.40
2022-07-30T04:45:11.731Z,21.40
2022-07-30T04:46:15.126Z,21.40
2022-07-30T04:47:18.076Z,21.40
2022-07-30T04:48:20.010Z,21.40
2022-07-30T04:49:23.101Z,21.40
2022-07-30T04:50:27.454Z,21.50
2022-07-30T04:51:34.164Z,21.50
2022-07-30T04:52:36.573Z,21.50
2022-07-30T04:53:40.244Z,21.50
2022-07-30T04:54:55.640Z,21.50
2022-07-30T04:55:59.077Z,21.50
2022-07-30T04:57:01.265Z,21.50
2022-07-30T04:58:04.202Z,21.50
2022-07-30T04:59:06.933Z,21.50
2022-07-30T05:00:09.395Z,21.50
2022-07-30T05:01:12.428Z,21.50
2022-07-30T05:02:18.028Z,21.50
2022-07-30T05:03:21.728Z,21.50
2022-07-30T05:04:25.149Z,21.50
2022-07-30T05:05:28.015Z,21.50
2022-07-30T05:06:31.420Z,21.60
2022-07-30T05:07:33.720Z,21.50
2022-07-30T05:08:35.889Z,21.50
2022-07-30T05:09:37.982Z,21.50
2022-07-30T05:10:44.824Z,21.50
2022-07-30T05:11:53.906Z,21.50
2022-07-30T05:12:55.569Z,21.50
2022-07-30T05:13:57.280Z,21.40
2022-07-30T05:14:58.973Z,21.40
2022-07-30T05:16:00.678Z,21.40
2022-07-30T05:17:03.104Z,21.50
2022-07-30T05:18:05.322Z,21.40
2022-07-30T05:19:08.257Z,21.40
2022-07-30T05:20:10.412Z,21.50
2022-07-30T05:21:12.361Z,21.50
2022-07-30T05:22:14.064Z,21.50
2022-07-30T05:23:15.949Z,21.50
2022-07-30T05:24:18.053Z,21.50
2022-07-30T05:25:19.957Z,21.60
2022-07-30T05:26:22.132Z,21.60
2022-07-30T05:27:30.460Z,21.60
2022-07-30T05:28:32.142Z,21.70
2022-07-30T05:29:34.138Z,21.70
2022-07-30T05:30:37.494Z,21.80
2022-07-30T05:31:43.560Z,21.80
2022-07-30T05:32:46.816Z,21.90
2022-07-30T05:33:49.845Z,21.90
2022-07-30T05:34:51.578Z,22.00
2022-07-30T05:35:54.304Z,21.90
2022-07-30T05:36:55.969Z,22.10
2022-07-30T05:37:58.777Z,22.10
2022-07-30T05:39:00.719Z,22.10
2022-07-30T05:40:03.715Z,22.20
2022-07-30T05:41:05.890Z,22.20
2022-07-30T05:42:27.526Z,22.30
2022-07-30T05:43:29.534Z,22.40
2022-07-30T05:44:31.189Z,22.40
2022-07-30T05:45:33.449Z,22.70
2022-07-30T05:46:35.309Z,22.50
2022-07-30T05:47:37.656Z,22.60
2022-07-30T05:48:39.455Z,22.70
2022-07-30T05:49:41.193Z,22.80
2022-07-30T05:50:43.800Z,22.90
2022-07-30T05:51:45.544Z,23.00
2022-07-30T05:52:47.569Z,23.00
2022-07-30T05:53:49.845Z,23.10
2022-07-30T05:54:51.561Z,23.20
2022-07-30T05:55:53.216Z,23.30
2022-07-30T05:56:54.879Z,23.30
2022-07-30T05:57:56.694Z,23.50
2022-07-30T05:58:58.424Z,23.60
2022-07-30T06:00:01.321Z,23.60
2022-07-30T06:01:02.999Z,23.70
2022-07-30T06:02:06.654Z,23.70
2022-07-30T06:03:08.354Z,23.80
2022-07-30T06:04:10.106Z,23.80
2022-07-30T06:05:12.290Z,23.80
2022-07-30T06:06:18.591Z,23.90
2022-07-30T06:07:22.995Z,24.00
2022-07-30T06:08:24.741Z,24.10
2022-07-30T06:09:36.216Z,24.10
2022-07-30T06:10:38.411Z,24.10
2022-07-30T06:11:40.150Z,24.20
2022-07-30T06:12:42.561Z,24.30
2022-07-30T06:13:45.003Z,24.40
2022-07-30T06:14:46.707Z,24.40
2022-07-30T06:15:48.396Z,24.40
2022-07-30T06:16:50.181Z,24.40
2022-07-30T06:18:01.629Z,24.50
2022-07-30T06:19:04.554Z,24.50
2022-07-30T06:20:06.747Z,24.50
2022-07-30T06:21:08.571Z,24.60
2022-07-30T06:22:10.276Z,24.60
2022-07-30T06:23:12.269Z,24.60
2022-07-30T06:24:14.024Z,24.60
2022-07-30T06:25:18.517Z,24.70
2022-07-30T06:26:20.518Z,24.70
2022-07-30T06:27:22.230Z,24.70
2022-07-30T06:28:39.736Z,24.70
2022-07-30T06:29:42.181Z,24.60
2022-07-30T06:30:46.015Z,24.60
2022-07-30T06:31:47.716Z,24.60
2022-07-30T06:32:49.563Z,24.60
2022-07-30T06:33:51.268Z,24.60
2022-07-30T06:35:01.063Z,24.70
2022-07-30T06:36:06.088Z,24.70
2022-07-30T06:37:07.766Z,24.70
2022-07-30T06:38:09.697Z,24.80
2022-07-30T06:39:11.441Z,24.80
2022-07-30T06:40:13.607Z,24.80
2022-07-30T06:41:15.813Z,24.80
2022-07-30T06:42:17.532Z,24.80
2022-07-30T06:43:21.080Z,24.70
2022-07-30T06:44:22.804Z,24.80
2022-07-30T06:45:24.674Z,24.70
2022-07-30T06:46:26.544Z,24.70
2022-07-30T06:47:31.353Z,24.60
2022-07-30T06:48:33.259Z,24.60
2022-07-30T06:49:36.071Z,24.60
2022-07-30T06:50:37.795Z,24.60
2022-07-30T06:51:39.438Z,24.50
2022-07-30T06:52:41.175Z,24.50
2022-07-30T06:53:45.692Z,24.50
2022-07-30T06:54:48.367Z,24.50
2022-07-30T06:55:50.960Z,24.40
2022-07-30T06:56:54.780Z,24.50
2022-07-30T06:57:56.705Z,24.50
2022-07-30T06:58:58.367Z,24.40
2022-07-30T07:00:00.096Z,24.50
2022-07-30T07:01:01.847Z,24.40
2022-07-30T07:02:03.628Z,24.50
2022-07-30T07:03:08.737Z,24.50
2022-07-30T07:04:13.500Z,24.40
2022-07-30T07:05:15.458Z,24.40
2022-07-30T07:06:17.170Z,24.20
2022-07-30T07:07:37.201Z,24.40
2022-07-30T07:08:40.897Z,24.40
2022-07-30T07:09:44.723Z,24.40
2022-07-30T07:10:46.667Z,24.40
2022-07-30T07:11:48.304Z,24.30
2022-07-30T07:12:50.254Z,24.40
2022-07-30T07:13:52.049Z,24.30
2022-07-30T07:14:53.723Z,24.30
2022-07-30T07:15:55.432Z,24.30
2022-07-30T07:16:57.394Z,24.40
2022-07-30T07:17:59.096Z,24.40
2022-07-30T07:19:06.704Z,24.40
2022-07-30T07:20:08.822Z,24.40
2022-07-30T07:21:10.533Z,24.40
2022-07-30T07:22:12.236Z,24.60
2022-07-30T07:23:13.954Z,24.50
2022-07-30T07:24:16.863Z,24.50
2022-07-30T07:25:18.742Z,24.50
2022-07-30T07:26:20.571Z,24.60
2022-07-30T07:27:22.437Z,24.60
2022-07-30T07:28:33.513Z,24.60
2022-07-30T07:29:35.344Z,24.60
2022-07-30T07:30:38.412Z,24.70
2022-07-30T07:32:06.153Z,24.70
2022-07-30T07:33:02.597Z,24.80
2022-07-30T07:34:04.378Z,24.80
2022-07-30T07:35:06.638Z,24.90
2022-07-30T07:36:08.710Z,24.90
2022-07-30T07:37:10.403Z,25.00
2022-07-30T07:38:12.402Z,25.00
2022-07-30T07:39:14.892Z,25.10
2022-07-30T07:40:16.787Z,25.10
2022-07-30T07:41:18.617Z,25.10
2022-07-30T07:42:20.354Z,25.10
2022-07-30T07:43:22.060Z,25.20
2022-07-30T07:44:23.866Z,25.20
2022-07-30T07:45:25.516Z,25.30
2022-07-30T07:46:33.741Z,25.30
2022-07-30T07:47:51.545Z,25.30
2022-07-30T07:48:55.119Z,25.40
2022-07-30T07:49:56.929Z,25.40
2022-07-30T07:51:00.618Z,25.40
2022-07-30T07:52:02.669Z,25.40
2022-07-30T07:53:04.921Z,25.40
2022-07-30T07:54:21.182Z,25.40
2022-07-30T07:55:24.159Z,25.50
2022-07-30T07:56:27.173Z,25.40
2022-07-30T07:57:29.633Z,25.40
2022-07-30T07:58:33.239Z,25.30
2022-07-30T07:59:40.378Z,25.30
2022-07-30T08:00:42.717Z,25.20
2022-07-30T08:01:46.661Z,25.20
2022-07-30T08:02:49.328Z,25.20
2022-07-30T08:03:51.405Z,25.10
2022-07-30T08:04:56.040Z,25.10
2022-07-30T08:06:05.995Z,25.10
2022-07-30T08:07:08.328Z,25.20
2022-07-30T08:08:10.015Z,25.10
2022-07-30T08:09:11.739Z,25.20
2022-07-30T08:10:15.896Z,25.10
2022-07-30T08:11:17.656Z,25.20
2022-07-30T08:12:19.513Z,25.30
2022-07-30T08:13:51.854Z,25.30
2022-07-30T08:14:42.982Z,25.30
2022-07-30T08:15:44.715Z,25.40
2022-07-30T08:16:46.512Z,25.50
2022-07-30T08:17:48.310Z,25.40
2022-07-30T08:18:50.182Z,25.40
2022-07-30T08:19:53.101Z,25.40
2022-07-30T08:20:55.238Z,25.40
2022-07-30T08:21:59.373Z,25.50
2022-07-30T08:23:01.788Z,25.70
2022-07-30T08:24:05.951Z,25.60
2022-07-30T08:25:08.616Z,25.60
2022-07-30T08:26:10.472Z,25.70
2022-07-30T08:27:12.177Z,25.70
2022-07-30T08:28:35.472Z,25.80
2022-07-30T08:29:36.411Z,25.80
2022-07-30T08:30:38.345Z,25.90
2022-07-30T08:31:41.561Z,25.90
2022-07-30T08:32:43.280Z,25.90
2022-07-30T08:33:44.951Z,25.90
2022-07-30T08:34:46.985Z,25.90
2022-07-30T08:35:52.867Z,25.90
2022-07-30T08:37:00.934Z,25.90
2022-07-30T08:38:02.612Z,25.90
2022-07-30T08:39:04.399Z,25.90
2022-07-30T08:40:07.254Z,25.90
2022-07-30T08:41:09.433Z,26.00
2022-07-30T08:42:14.078Z,26.10
2022-07-30T08:43:16.255Z,26.00
2022-07-30T08:44:19.143Z,26.00
2022-07-30T08:45:22.130Z,26.00
2022-07-30T08:46:40.700Z,26.00
2022-07-30T08:47:50.053Z,25.90
2022-07-30T08:48:52.708Z,25.90
2022-07-30T08:49:55.935Z,25.90
2022-07-30T08:50:58.521Z,25.90
2022-07-30T08:52:00.961Z,25.90
2022-07-30T08:53:03.432Z,25.90
2022-07-30T08:54:06.209Z,25.90
2022-07-30T08:55:08.576Z,25.90
2022-07-30T08:56:10.571Z,25.90
2022-07-30T08:57:12.583Z,25.90
2022-07-30T08:58:30.269Z,26.00
2022-07-30T08:59:59.820Z,26.00
2022-07-30T09:00:53.872Z,26.00
2022-07-30T09:01:55.543Z,26.10
2022-07-30T09:02:57.582Z,26.20
2022-07-30T09:03:59.865Z,26.20
2022-07-30T09:05:01.663Z,26.30
2022-07-30T09:06:05.498Z,26.30
2022-07-30T09:07:08.414Z,26.30
2022-07-30T09:08:10.105Z,26.20
2022-07-30T09:09:11.783Z,26.20
2022-07-30T09:10:13.480Z,26.20
2022-07-30T09:11:15.233Z,26.20
2022-07-30T09:12:32.976Z,26.20
2022-07-30T09:13:41.684Z,26.20
2022-07-30T09:15:05.542Z,26.30
2022-07-30T09:16:18.082Z,26.40
2022-07-30T09:17:20.153Z,26.40
2022-07-30T09:18:41.166Z,26.50
2022-07-30T09:20:02.580Z,26.60
2022-07-30T09:21:24.928Z,26.70
2022-07-30T09:22:52.010Z,26.70
2022-07-30T09:24:01.425Z,26.80
2022-07-30T09:25:03.614Z,26.70
2022-07-30T09:26:05.383Z,26.70
2022-07-30T09:27:07.366Z,26.50
2022-07-30T09:28:16.271Z,26.40
2022-07-30T09:29:21.234Z,26.40
2022-07-30T09:30:22.928Z,26.40
2022-07-30T09:31:24.907Z,26.40
2022-07-30T09:32:46.385Z,26.40
2022-07-30T09:33:48.507Z,26.50
2022-07-30T09:34:50.745Z,26.60
2022-07-30T09:35:56.551Z,26.70
2022-07-30T09:37:01.279Z,26.70
2022-07-30T09:38:06.684Z,26.80
2022-07-30T09:39:08.522Z,26.90
2022-07-30T09:40:17.469Z,27.00
2022-07-30T09:41:38.840Z,27.00
2022-07-30T09:42:41.307Z,27.00
2022-07-30T09:43:49.461Z,27.20
2022-07-30T09:44:51.759Z,27.10
2022-07-30T09:45:57.834Z,27.00
2022-07-30T09:47:01.821Z,27.00
2022-07-30T09:48:25.780Z,26.90
2022-07-30T09:49:29.211Z,26.90
2022-07-30T09:50:31.144Z,27.00
2022-07-30T09:51:54.747Z,26.90
2022-07-30T09:53:09.692Z,26.90
2022-07-30T09:54:13.907Z,27.00
2022-07-30T09:55:33.780Z,27.00
2022-07-30T09:56:35.502Z,27.10
2022-07-30T09:57:56.666Z,27.10
2022-07-30T09:58:59.616Z,27.20
2022-07-30T10:00:23.707Z,27.30
2022-07-30T10:01:49.679Z,27.30
2022-07-30T10:02:51.770Z,27.40
2022-07-30T10:03:53.823Z,27.50
2022-07-30T10:05:15.608Z,27.50
2022-07-30T10:06:17.396Z,27.40
2022-07-30T10:07:25.254Z,27.40
2022-07-30T10:08:50.062Z,27.50
2022-07-30T10:09:53.375Z,27.50
2022-07-30T10:10:55.298Z,27.60
2022-07-30T10:12:02.568Z,27.60
2022-07-30T10:13:07.597Z,27.60
2022-07-30T10:14:09.665Z,27.60
2022-07-30T10:15:13.643Z,27.60
2022-07-30T10:16:16.279Z,27.60
2022-07-30T10:17:20.739Z,27.60
2022-07-30T10:18:23.509Z,27.60
2022-07-30T10:19:39.758Z,27.60
2022-07-30T10:20:45.424Z,27.60
2022-07-30T10:21:50.705Z,27.50
2022-07-30T10:22:52.675Z,27.40
2022-07-30T10:23:54.841Z,27.30
2022-07-30T10:24:57.409Z,27.30
2022-07-30T10:26:01.025Z,27.30
2022-07-30T10:27:08.730Z,27.30
2022-07-30T10:28:12.367Z,27.30
2022-07-30T10:29:17.942Z,27.30
2022-07-30T10:30:26.781Z,27.40
2022-07-30T10:31:48.639Z,27.40
2022-07-30T10:32:53.836Z,27.40
2022-07-30T10:33:56.456Z,27.40
2022-07-30T10:34:59.639Z,27.40
2022-07-30T10:36:02.506Z,27.30
2022-07-30T10:37:07.400Z,27.30
2022-07-30T10:38:13.822Z,27.30
2022-07-30T10:39:20.529Z,27.30
2022-07-30T10:40:39.416Z,27.30
2022-07-30T10:42:04.726Z,27.30
2022-07-30T10:43:31.434Z,27.30
2022-07-30T10:44:55.138Z,27.20
2022-07-30T10:46:02.786Z,27.20
2022-07-30T10:47:10.449Z,27.20
2022-07-30T10:48:12.366Z,27.30
2022-07-30T10:49:19.095Z,27.30
2022-07-30T10:50:26.766Z,27.40
2022-07-30T10:51:49.482Z,27.50
2022-07-30T10:52:55.877Z,27.60
2022-07-30T10:53:58.764Z,27.70
2022-07-30T10:55:01.479Z,27.70
2022-07-30T10:56:33.253Z,27.70
2022-07-30T10:57:41.352Z,27.80
2022-07-30T10:59:09.289Z,27.90
2022-07-30T11:00:12.206Z,28.00
2022-07-30T11:01:18.512Z,28.00
2022-07-30T11:02:21.103Z,28.10
2022-07-30T11:03:40.010Z,28.10
2022-07-30T11:04:43.807Z,28.10
2022-07-30T11:06:09.888Z,28.20
2022-07-30T11:07:26.429Z,28.10
2022-07-30T11:08:36.223Z,28.10
2022-07-30T11:09:45.231Z,28.10
2022-07-30T11:12:01.905Z,28.10
2022-07-30T11:12:55.429Z,28.10
2022-07-30T11:13:59.132Z,28.10
2022-07-30T11:15:06.881Z,28.10
2022-07-30T11:16:22.310Z,28.10
2022-07-30T11:17:25.062Z,28.10
2022-07-30T11:18:29.310Z,28.10
2022-07-30T11:19:56.033Z,28.10
2022-07-30T11:21:16.732Z,28.30
2022-07-30T11:22:38.893Z,28.30
2022-07-30T11:23:44.407Z,28.40
2022-07-30T11:24:48.981Z,28.50
2022-07-30T11:25:54.587Z,28.50
2022-07-30T11:26:56.693Z,28.50
2022-07-30T11:28:00.697Z,28.50
2022-07-30T11:29:04.089Z,28.40
2022-07-30T11:30:17.016Z,28.40
2022-07-30T11:31:55.778Z,28.30
2022-07-30T11:33:14.209Z,28.20
2022-07-30T11:34:25.958Z,28.20
2022-07-30T11:35:34.698Z,28.10
2022-07-30T11:36:37.694Z,28.10
2022-07-30T11:37:57.854Z,28.20
2022-07-30T11:39:03.653Z,28.30
2022-07-30T11:40:11.472Z,28.30
2022-07-30T11:41:13.183Z,28.20
2022-07-30T11:42:31.642Z,28.30
2022-07-30T11:43:37.071Z,28.30
2022-07-30T11:44:38.904Z,28.40
2022-07-30T11:45:41.245Z,28.40
2022-07-30T11:46:49.102Z,28.50
2022-07-30T11:47:53.053Z,28.50
2022-07-30T11:49:00.217Z,28.60
2022-07-30T11:50:02.594Z,28.60
2022-07-30T11:51:05.294Z,28.60
2022-07-30T11:52:08.336Z,28.60
2022-07-30T11:53:19.544Z,28.70
2022-07-30T11:54:21.540Z,28.70
2022-07-30T11:55:24.466Z,28.80
2022-07-30T11:56:26.196Z,28.90
2022-07-30T11:57:44.242Z,28.90
2022-07-30T11:58:45.923Z,29.00
2022-07-30T11:59:57.993Z,29.00
2022-07-30T12:01:21.337Z,29.10
2022-07-30T12:02:29.363Z,29.10
2022-07-30T12:03:31.896Z,29.10
2022-07-30T12:04:33.726Z,29.20
2022-07-30T12:05:35.722Z,29.20
2022-07-30T12:06:45.635Z,29.30
2022-07-30T12:07:47.745Z,29.40
2022-07-30T12:08:57.882Z,29.50
2022-07-30T12:10:26.837Z,29.50
2022-07-30T12:11:34.400Z,29.60
2022-07-30T12:12:36.069Z,29.70
2022-07-30T12:13:43.863Z,29.70
2022-07-30T12:14:47.614Z,29.70
2022-07-30T12:15:49.304Z,29.70
2022-07-30T12:16:54.695Z,29.60
2022-07-30T12:18:24.206Z,29.80
2022-07-30T12:19:20.031Z,29.60
2022-07-30T12:20:21.839Z,29.60
2022-07-30T12:21:25.142Z,29.60
2022-07-30T12:22:26.912Z,29.70
2022-07-30T12:23:29.693Z,29.80
2022-07-30T12:24:31.482Z,29.90
2022-07-30T12:25:33.434Z,29.90
2022-07-30T12:26:35.854Z,29.90
2022-07-30T12:27:38.386Z,30.00
2022-07-30T12:28:40.092Z,30.00
2022-07-30T12:29:41.880Z,30.10
2022-07-30T12:30:43.927Z,30.10
2022-07-30T12:31:46.132Z,30.10
2022-07-30T12:32:48.079Z,30.20
2022-07-30T12:33:49.908Z,30.30
2022-07-30T12:34:58.265Z,30.30
2022-07-30T12:36:00.931Z,30.40
2022-07-30T12:37:10.236Z,30.50
2022-07-30T12:38:12.783Z,30.50
2022-07-30T12:39:23.122Z,30.50
2022-07-30T12:40:24.822Z,30.50
2022-07-30T12:41:46.889Z,30.50
2022-07-30T12:42:55.470Z,30.60
2022-07-30T12:43:58.211Z,30.70
2022-07-30T12:44:59.982Z,30.80
2022-07-30T12:46:02.121Z,30.80
2022-07-30T12:47:05.959Z,30.90
2022-07-30T12:48:11.224Z,31.00
2022-07-30T12:49:22.520Z,31.10
2022-07-30T12:50:26.906Z,31.30
2022-07-30T12:51:35.044Z,31.40
2022-07-30T12:52:40.000Z,31.50
2022-07-30T12:53:42.116Z,31.50
2022-07-30T12:54:43.894Z,31.60
2022-07-30T12:55:45.575Z,31.30
2022-07-30T12:57:02.253Z,31.40
2022-07-30T12:58:08.852Z,31.40
2022-07-30T12:59:22.052Z,31.50
2022-07-30T13:00:26.652Z,31.50
2022-07-30T13:01:46.003Z,31.30
2022-07-30T13:02:48.106Z,31.20
2022-07-30T13:03:49.919Z,31.10
2022-07-30T13:05:10.576Z,31.10
2022-07-30T13:06:20.196Z,31.00
2022-07-30T13:07:21.905Z,30.90
2022-07-30T13:08:45.401Z,31.00
2022-07-30T13:09:47.087Z,31.00
2022-07-30T13:10:59.149Z,31.10
2022-07-30T13:12:01.030Z,31.30
2022-07-30T13:13:04.226Z,31.30
2022-07-30T13:14:07.764Z,31.30
2022-07-30T13:15:16.912Z,31.40
2022-07-30T13:16:20.441Z,31.40
2022-07-30T13:17:22.311Z,31.40
2022-07-30T13:18:24.037Z,31.60
2022-07-30T13:19:28.134Z,31.50
2022-07-30T13:20:29.953Z,31.60
2022-07-30T13:21:32.317Z,31.70
2022-07-30T13:22:34.152Z,31.80
2022-07-30T13:23:40.303Z,31.90
2022-07-30T13:24:42.153Z,31.90
2022-07-30T13:25:43.971Z,32.00
2022-07-30T13:26:46.469Z,32.10
2022-07-30T13:27:48.451Z,32.10
2022-07-30T13:28:50.131Z,32.20
2022-07-30T13:29:52.140Z,32.20
2022-07-30T13:30:54.530Z,32.30
2022-07-30T13:31:57.407Z,32.40
2022-07-30T13:32:59.255Z,32.50
2022-07-30T13:34:01.104Z,32.60
2022-07-30T13:35:05.371Z,32.70
2022-07-30T13:36:07.823Z,32.70
2022-07-30T13:37:10.983Z,32.60
2022-07-30T13:38:14.027Z,32.60
2022-07-30T13:39:16.117Z,32.50
2022-07-30T13:40:17.950Z,32.40
2022-07-30T13:41:21.003Z,32.30
2022-07-30T13:42:23.190Z,32.30
2022-07-30T13:43:25.042Z,32.20
2022-07-30T13:44:26.709Z,32.20
2022-07-30T13:45:29.541Z,32.40
2022-07-30T13:46:32.130Z,32.40
2022-07-30T13:47:34.273Z,32.30
2022-07-30T13:48:37.803Z,32.40
2022-07-30T13:49:44.055Z,32.40
2022-07-30T13:50:46.706Z,32.30
2022-07-30T13:51:48.610Z,32.30
2022-07-30T13:52:50.906Z,32.30
2022-07-30T13:53:53.291Z,32.30
2022-07-30T13:54:55.201Z,32.40
2022-07-30T13:56:01.918Z,32.40
2022-07-30T13:57:04.226Z,32.50
2022-07-30T13:58:07.482Z,32.70
2022-07-30T13:59:09.724Z,32.80
2022-07-30T14:00:12.695Z,32.80
2022-07-30T14:01:17.275Z,32.80
2022-07-30T14:02:21.986Z,32.80
2022-07-30T14:03:24.236Z,32.90
2022-07-30T14:04:26.350Z,32.80
2022-07-30T14:05:31.401Z,32.60
2022-07-30T14:06:34.196Z,32.50
2022-07-30T14:07:37.268Z,32.30
2022-07-30T14:08:40.208Z,32.20
2022-07-30T14:09:45.024Z,32.10
2022-07-30T14:10:52.517Z,32.00
2022-07-30T14:11:56.116Z,31.80
2022-07-30T14:12:58.511Z,31.80
2022-07-30T14:14:00.309Z,31.70
2022-07-30T14:15:02.415Z,31.70
2022-07-30T14:16:10.598Z,31.90
2022-07-30T14:17:19.870Z,31.90
2022-07-30T14:18:21.945Z,32.00